East Union, Indiana
Current Conditions -  °F | °C
As of 12:55 AM on Sunday 23 Nov 2014 (Local Time) from KTYQ Reporting Station
Moderate Rain Moderate Rain  
Wind Chill: 44°   Ceiling: 7000
Heat Index: 48°   Visibility: 7mi
Dew Point: 41°   Wind: 8mph
Humidity: 78%   Direction: 190°S
Pressure: 29.99"   Gusts: NA
Location:  40.1832°N, 85.9359°W
Report Text: KTYQ 230555Z AUTO 19007KT 7SM RA SCT048 BKN070 OVC080 09/05 A2999 RMK AO2 P0004 60004 T00890052 10125 20089
Loading
Personal Weather Stations






























Interactive Weather Map New forecast layout! Learn more

10-Day Weather Forecast

Advertisements
Track Severe Weather on mobile